createdAt,value
2022-10-12T00:00:03.092Z,20.80
2022-10-12T00:03:35.160Z,20.80
2022-10-12T00:06:57.279Z,20.80
2022-10-12T00:10:19.439Z,20.80
2022-10-12T00:13:41.874Z,20.80
2022-10-12T00:17:04.345Z,20.80
2022-10-12T00:20:26.428Z,20.80
2022-10-12T00:23:48.952Z,20.80
2022-10-12T00:27:11.152Z,20.80
2022-10-12T00:30:34.249Z,20.80
2022-10-12T00:33:59.692Z,20.80
2022-10-12T00:37:21.876Z,20.80
2022-10-12T00:40:43.950Z,20.80
2022-10-12T00:44:43.067Z,20.80
2022-10-12T00:48:08.396Z,20.80
2022-10-12T00:51:30.500Z,20.70
2022-10-12T00:54:53.978Z,20.80
2022-10-12T00:58:16.419Z,20.80
2022-10-12T01:01:39.364Z,20.70
2022-10-12T01:05:02.905Z,20.70
2022-10-12T01:08:25.279Z,20.80
2022-10-12T01:11:47.929Z,20.80
2022-10-12T01:15:11.272Z,20.80
2022-10-12T01:18:48.479Z,20.80
2022-10-12T01:22:16.817Z,20.80
2022-10-12T01:25:38.914Z,20.70
2022-10-12T01:29:35.241Z,20.70
2022-10-12T01:33:18.940Z,20.70
2022-10-12T01:36:45.322Z,20.70
2022-10-12T01:40:18.241Z,20.70
2022-10-12T01:43:42.937Z,20.70
2022-10-12T01:47:05.140Z,20.80
2022-10-12T01:50:37.032Z,20.70
2022-10-12T01:54:13.119Z,20.70
2022-10-12T01:57:48.116Z,20.70
2022-10-12T02:01:16.171Z,20.70
2022-10-12T02:05:10.572Z,20.70
2022-10-12T02:08:32.769Z,20.70
2022-10-12T02:12:00.088Z,20.70
2022-10-12T02:15:25.779Z,20.70
2022-10-12T02:18:51.907Z,20.60
2022-10-12T02:22:16.484Z,20.70
2022-10-12T02:25:39.965Z,20.60
2022-10-12T02:29:06.631Z,20.60
2022-10-12T02:32:44.163Z,20.60
2022-10-12T02:36:15.942Z,20.60
2022-10-12T02:39:54.559Z,20.60
2022-10-12T02:43:32.761Z,20.60
2022-10-12T02:46:55.693Z,20.60
2022-10-12T02:50:21.288Z,20.60
2022-10-12T02:53:45.129Z,20.60
2022-10-12T02:57:07.330Z,20.60
2022-10-12T03:00:32.590Z,20.60
2022-10-12T03:03:54.738Z,20.60
2022-10-12T03:07:16.872Z,20.60
2022-10-12T03:10:39.081Z,20.60
2022-10-12T03:14:01.276Z,20.60
2022-10-12T03:17:23.793Z,20.60
2022-10-12T03:20:49.120Z,20.60
2022-10-12T03:24:11.351Z,20.60
2022-10-12T03:27:33.596Z,20.50
2022-10-12T03:30:55.919Z,20.60
2022-10-12T03:34:18.041Z,20.50
2022-10-12T03:37:40.597Z,20.50
2022-10-12T03:41:06.557Z,20.50
2022-10-12T03:44:28.989Z,20.50
2022-10-12T03:47:51.100Z,20.50
2022-10-12T03:51:13.362Z,20.50
2022-10-12T03:54:35.521Z,20.50
2022-10-12T03:57:57.689Z,20.50
2022-10-12T04:01:19.940Z,20.50
2022-10-12T04:04:42.087Z,20.50
2022-10-12T04:08:04.414Z,20.50
2022-10-12T04:11:26.569Z,20.50
2022-10-12T04:14:48.681Z,20.50
2022-10-12T04:18:11.034Z,20.50
2022-10-12T04:21:33.201Z,20.50
2022-10-12T04:24:55.353Z,20.50
2022-10-12T04:28:17.505Z,20.50
2022-10-12T04:31:40.439Z,20.50
2022-10-12T04:35:02.620Z,20.50
2022-10-12T04:38:24.998Z,20.40
2022-10-12T04:41:47.093Z,20.40
2022-10-12T04:45:09.566Z,20.40
2022-10-12T04:48:31.808Z,20.40
2022-10-12T04:51:53.962Z,20.40
2022-10-12T04:55:16.195Z,20.40
2022-10-12T04:58:38.427Z,20.40
2022-10-12T05:02:00.639Z,20.40
2022-10-12T05:05:22.880Z,20.40
2022-10-12T05:08:44.993Z,20.40
2022-10-12T05:12:07.324Z,20.40
2022-10-12T05:15:29.547Z,20.40
2022-10-12T05:18:51.761Z,20.40
2022-10-12T05:22:13.889Z,20.40
2022-10-12T05:25:36.546Z,20.40
2022-10-12T05:28:58.730Z,20.40
2022-10-12T05:32:21.004Z,20.40
2022-10-12T05:35:47.630Z,20.40
2022-10-12T05:39:10.985Z,20.40
2022-10-12T05:42:34.652Z,20.40
2022-10-12T05:45:56.789Z,20.30
2022-10-12T05:49:18.923Z,20.30
2022-10-12T05:52:41.418Z,20.30
2022-10-12T05:56:04.142Z,20.30
2022-10-12T05:59:26.356Z,20.30
2022-10-12T06:02:48.561Z,20.40
2022-10-12T06:06:11.224Z,20.40
2022-10-12T06:09:33.449Z,20.40
2022-10-12T06:12:55.614Z,20.40
2022-10-12T06:16:17.786Z,20.50
2022-10-12T06:19:39.934Z,20.50
2022-10-12T06:23:02.044Z,20.50
2022-10-12T06:26:24.960Z,20.50
2022-10-12T06:29:47.067Z,20.50
2022-10-12T06:33:09.603Z,20.50
2022-10-12T06:36:31.782Z,20.50
2022-10-12T06:39:53.901Z,20.60
2022-10-12T06:43:16.032Z,20.60
2022-10-12T06:46:38.128Z,20.60
2022-10-12T06:50:00.201Z,20.60
2022-10-12T06:53:22.566Z,20.60
2022-10-12T06:56:44.800Z,20.60
2022-10-12T07:00:08.430Z,20.50
2022-10-12T07:03:31.166Z,20.50
2022-10-12T07:06:53.374Z,20.30
2022-10-12T07:10:15.706Z,20.30
2022-10-12T07:13:37.893Z,20.20
2022-10-12T07:17:00.043Z,20.20
2022-10-12T07:20:22.310Z,20.10
2022-10-12T07:23:46.145Z,20.10
2022-10-12T07:27:10.809Z,20.20
2022-10-12T07:30:35.997Z,20.20
2022-10-12T07:33:58.041Z,20.20
2022-10-12T07:37:20.231Z,20.30
2022-10-12T07:40:42.520Z,20.40
2022-10-12T07:44:04.878Z,20.50
2022-10-12T07:47:27.155Z,20.50
2022-10-12T07:50:50.009Z,20.50
2022-10-12T07:54:15.383Z,20.60
2022-10-12T07:57:41.494Z,20.60
2022-10-12T08:01:08.710Z,20.70
2022-10-12T08:04:30.927Z,20.70
2022-10-12T08:07:53.326Z,20.80
2022-10-12T08:11:16.097Z,20.80
2022-10-12T08:14:38.909Z,20.80
2022-10-12T08:18:01.093Z,20.80
2022-10-12T08:21:23.421Z,20.70
2022-10-12T08:24:45.630Z,20.60
2022-10-12T08:28:07.880Z,20.50
2022-10-12T08:31:30.146Z,20.50
2022-10-12T08:34:52.326Z,20.70
2022-10-12T08:38:15.654Z,20.70
2022-10-12T08:41:53.013Z,22.10
2022-10-12T08:45:52.228Z,23.60
2022-10-12T08:49:22.570Z,22.70
2022-10-12T08:53:00.216Z,23.40
2022-10-12T08:56:22.973Z,22.50
2022-10-12T08:59:46.169Z,21.80
2022-10-12T09:03:23.678Z,21.40
2022-10-12T09:06:50.894Z,21.20
2022-10-12T09:10:45.461Z,21.20
2022-10-12T09:14:17.986Z,21.20
2022-10-12T09:17:50.772Z,21.10
2022-10-12T09:21:21.321Z,21.10
2022-10-12T09:24:45.422Z,21.10
2022-10-12T09:28:20.566Z,21.00
2022-10-12T09:32:16.477Z,21.10
2022-10-12T09:35:40.713Z,21.00
2022-10-12T09:39:06.251Z,20.90
2022-10-12T09:42:28.472Z,21.00
2022-10-12T09:45:51.746Z,21.00
2022-10-12T09:49:13.962Z,21.00
2022-10-12T09:52:36.450Z,21.00
2022-10-12T09:56:04.473Z,21.10
2022-10-12T09:59:32.957Z,21.00
2022-10-12T10:02:55.899Z,21.10
2022-10-12T10:06:25.877Z,21.10
2022-10-12T10:10:02.714Z,21.10
2022-10-12T10:13:29.609Z,21.10
2022-10-12T10:16:53.069Z,21.10
2022-10-12T10:20:26.348Z,21.10
2022-10-12T10:24:06.326Z,21.10
2022-10-12T10:27:37.447Z,21.10
2022-10-12T10:31:03.013Z,21.10
2022-10-12T10:34:28.895Z,21.20
2022-10-12T10:37:55.685Z,21.20
2022-10-12T10:41:20.678Z,21.20
2022-10-12T10:44:49.276Z,21.20
2022-10-12T10:48:17.444Z,21.10
2022-10-12T10:51:41.646Z,21.20
2022-10-12T10:55:16.063Z,21.20
2022-10-12T10:58:45.893Z,21.20
2022-10-12T11:02:33.040Z,21.20
2022-10-12T11:06:16.814Z,21.20
2022-10-12T11:09:45.462Z,21.20
2022-10-12T11:13:48.625Z,21.30
2022-10-12T11:17:21.616Z,21.30
2022-10-12T11:20:52.574Z,21.30
2022-10-12T11:24:22.019Z,21.40
2022-10-12T11:27:45.042Z,21.40
2022-10-12T11:31:15.950Z,21.40
2022-10-12T11:34:48.095Z,21.40
2022-10-12T11:38:22.354Z,21.50
2022-10-12T11:42:16.817Z,21.50
2022-10-12T11:45:38.158Z,21.50
2022-10-12T11:49:07.640Z,21.50
2022-10-12T11:52:39.638Z,21.40
2022-10-12T11:56:10.110Z,21.30
2022-10-12T11:59:41.834Z,21.20
2022-10-12T12:03:32.839Z,21.20
2022-10-12T12:06:57.837Z,21.20
2022-10-12T12:10:31.633Z,21.20
2022-10-12T12:14:21.673Z,21.20
2022-10-12T12:18:04.520Z,21.20
2022-10-12T12:21:26.746Z,21.10
2022-10-12T12:25:00.115Z,21.10
2022-10-12T12:28:24.905Z,21.10
2022-10-12T12:31:56.307Z,21.10
2022-10-12T12:35:40.676Z,21.10
2022-10-12T12:39:05.971Z,21.10
2022-10-12T12:42:33.139Z,21.20
2022-10-12T12:46:11.852Z,21.20
2022-10-12T12:49:42.704Z,21.10
2022-10-12T12:53:19.377Z,21.10
2022-10-12T12:56:57.466Z,21.10
2022-10-12T13:00:23.417Z,21.00
2022-10-12T13:03:52.238Z,21.00
2022-10-12T13:07:33.735Z,21.00
2022-10-12T13:11:33.474Z,21.00
2022-10-12T13:15:11.872Z,21.00
2022-10-12T13:18:49.247Z,21.00
2022-10-12T13:22:20.887Z,21.00
2022-10-12T13:26:09.230Z,21.00
2022-10-12T13:29:49.127Z,21.00
2022-10-12T13:33:11.352Z,21.00
2022-10-12T13:36:46.670Z,21.00
2022-10-12T13:40:32.155Z,21.00
2022-10-12T13:44:03.524Z,21.00
2022-10-12T13:47:28.762Z,21.00
2022-10-12T13:50:56.623Z,21.00
2022-10-12T13:54:24.807Z,21.00
2022-10-12T13:57:50.157Z,21.00
2022-10-12T14:01:12.979Z,21.00
2022-10-12T14:04:36.329Z,21.00
2022-10-12T14:08:05.288Z,21.00
2022-10-12T14:11:28.397Z,21.10
2022-10-12T14:14:51.689Z,21.10
2022-10-12T14:18:37.619Z,21.10
2022-10-12T14:22:01.192Z,21.10
2022-10-12T14:25:27.085Z,21.10
2022-10-12T14:28:49.459Z,21.10
2022-10-12T14:32:11.565Z,21.10
2022-10-12T14:35:34.412Z,21.10
2022-10-12T14:39:13.203Z,21.10
2022-10-12T14:42:36.491Z,21.10
2022-10-12T14:45:58.745Z,21.10
2022-10-12T14:49:39.357Z,21.00
2022-10-12T14:53:07.621Z,21.10
2022-10-12T14:56:30.335Z,21.10
2022-10-12T14:59:52.519Z,21.10
2022-10-12T15:03:14.843Z,21.10
2022-10-12T15:06:37.143Z,21.00
2022-10-12T15:09:59.893Z,21.00
2022-10-12T15:13:21.994Z,21.00
2022-10-12T15:16:44.631Z,21.00
2022-10-12T15:20:07.179Z,21.10
2022-10-12T15:23:29.328Z,21.00
2022-10-12T15:26:51.477Z,21.00
2022-10-12T15:30:14.189Z,21.00
2022-10-12T15:33:36.333Z,21.10
2022-10-12T15:36:58.483Z,21.10
2022-10-12T15:40:21.019Z,21.00
2022-10-12T15:43:43.267Z,21.00
2022-10-12T15:47:05.436Z,21.10
2022-10-12T15:50:33.544Z,21.10
2022-10-12T15:53:55.741Z,21.00
2022-10-12T15:57:18.001Z,21.00
2022-10-12T16:00:40.195Z,21.10
2022-10-12T16:04:04.376Z,21.10
2022-10-12T16:07:26.481Z,21.00
2022-10-12T16:10:49.030Z,21.10
2022-10-12T16:14:14.360Z,21.10
2022-10-12T16:17:36.614Z,21.10
2022-10-12T16:20:58.757Z,21.00
2022-10-12T16:24:21.072Z,21.00
2022-10-12T16:27:44.658Z,21.00
2022-10-12T16:31:13.316Z,21.00
2022-10-12T16:34:35.530Z,21.00
2022-10-12T16:37:57.749Z,21.00
2022-10-12T16:41:19.974Z,21.00
2022-10-12T16:44:42.192Z,21.10
2022-10-12T16:48:04.590Z,21.00
2022-10-12T16:51:26.734Z,21.00
2022-10-12T16:54:48.831Z,21.00
2022-10-12T16:58:11.014Z,21.00
2022-10-12T17:01:33.167Z,21.00
2022-10-12T17:04:55.351Z,21.00
2022-10-12T17:08:17.474Z,21.00
2022-10-12T17:11:40.558Z,21.00
2022-10-12T17:15:02.813Z,21.00
2022-10-12T17:18:25.002Z,21.00
2022-10-12T17:21:47.745Z,21.00
2022-10-12T17:25:09.855Z,20.90
2022-10-12T17:28:32.188Z,20.90
2022-10-12T17:31:55.205Z,21.00
2022-10-12T17:35:17.409Z,21.00
2022-10-12T17:38:39.665Z,21.10
2022-10-12T17:42:01.879Z,21.10
2022-10-12T17:45:24.037Z,21.10
2022-10-12T17:48:46.703Z,21.10
2022-10-12T17:52:08.857Z,21.10
2022-10-12T17:55:48.121Z,21.10
2022-10-12T17:59:14.203Z,21.10
2022-10-12T18:02:36.294Z,21.10
2022-10-12T18:06:09.794Z,21.10
2022-10-12T18:09:31.899Z,21.10
2022-10-12T18:12:54.067Z,21.10
2022-10-12T18:16:18.425Z,21.20
2022-10-12T18:19:40.600Z,21.20
2022-10-12T18:23:02.708Z,21.20
2022-10-12T18:26:26.396Z,21.20
2022-10-12T18:29:48.598Z,21.20
2022-10-12T18:33:10.765Z,21.20
2022-10-12T18:36:32.948Z,21.20
2022-10-12T18:39:55.250Z,21.20
2022-10-12T18:43:17.388Z,21.20
2022-10-12T18:46:39.601Z,21.20
2022-10-12T18:50:01.876Z,21.10
2022-10-12T18:53:27.166Z,21.20
2022-10-12T18:56:49.346Z,21.10
2022-10-12T19:00:11.758Z,21.10
2022-10-12T19:03:34.010Z,21.20
2022-10-12T19:06:57.887Z,21.20
2022-10-12T19:10:20.331Z,21.20
2022-10-12T19:13:42.523Z,21.10
2022-10-12T19:17:04.620Z,21.10
2022-10-12T19:20:26.857Z,21.10
2022-10-12T19:23:49.036Z,21.00
2022-10-12T19:27:11.493Z,21.00
2022-10-12T19:30:37.549Z,21.00
2022-10-12T19:34:02.046Z,21.00
2022-10-12T19:37:24.121Z,21.00
2022-10-12T19:40:46.749Z,21.20
2022-10-12T19:44:11.059Z,21.20
2022-10-12T19:47:34.787Z,21.10
2022-10-12T19:51:02.097Z,21.10
2022-10-12T19:54:24.304Z,21.00
2022-10-12T19:57:48.663Z,21.00
2022-10-12T20:01:16.475Z,20.90
2022-10-12T20:04:38.896Z,20.90
2022-10-12T20:08:01.079Z,20.90
2022-10-12T20:11:24.920Z,20.90
2022-10-12T20:14:47.354Z,20.90
2022-10-12T20:18:09.509Z,20.90
2022-10-12T20:21:31.754Z,20.90
2022-10-12T20:24:53.890Z,20.90
2022-10-12T20:28:16.830Z,20.90
2022-10-12T20:31:39.038Z,20.90
2022-10-12T20:35:01.819Z,20.90
2022-10-12T20:38:24.185Z,20.90
2022-10-12T20:41:47.018Z,20.90
2022-10-12T20:45:10.471Z,20.90
2022-10-12T20:48:33.342Z,20.90
2022-10-12T20:51:55.589Z,20.90
2022-10-12T20:55:17.865Z,20.90
2022-10-12T20:58:40.176Z,20.90
2022-10-12T21:02:02.371Z,20.90
2022-10-12T21:05:25.238Z,20.90
2022-10-12T21:08:55.337Z,20.90
2022-10-12T21:12:17.854Z,20.90
2022-10-12T21:15:40.214Z,20.90
2022-10-12T21:19:02.319Z,20.90
2022-10-12T21:22:24.445Z,20.90
2022-10-12T21:25:46.577Z,20.90
2022-10-12T21:29:08.876Z,20.90
2022-10-12T21:32:31.682Z,20.90
2022-10-12T21:35:54.030Z,20.90
2022-10-12T21:39:17.214Z,20.90
2022-10-12T21:42:39.469Z,20.90
2022-10-12T21:46:06.379Z,20.90
2022-10-12T21:49:28.617Z,20.90
2022-10-12T21:52:50.749Z,20.80
2022-10-12T21:56:21.565Z,20.90
2022-10-12T21:59:43.678Z,20.90
2022-10-12T22:03:05.931Z,20.80
2022-10-12T22:06:29.580Z,20.80
2022-10-12T22:09:51.800Z,20.80
2022-10-12T22:13:13.940Z,20.80
2022-10-12T22:16:43.186Z,20.80
2022-10-12T22:20:05.927Z,20.80
2022-10-12T22:23:28.044Z,20.80
2022-10-12T22:26:51.630Z,20.80
2022-10-12T22:30:14.081Z,20.80
2022-10-12T22:33:37.488Z,20.80
2022-10-12T22:36:59.689Z,20.80
2022-10-12T22:40:21.832Z,20.80
2022-10-12T22:43:43.979Z,20.80
2022-10-12T22:47:06.790Z,20.80
2022-10-12T22:50:28.907Z,20.80
2022-10-12T22:53:51.087Z,20.80
2022-10-12T22:57:13.237Z,20.80
2022-10-12T23:00:35.474Z,20.80
2022-10-12T23:03:57.727Z,20.80
2022-10-12T23:07:19.937Z,20.80
2022-10-12T23:10:42.095Z,20.80
2022-10-12T23:14:04.317Z,20.80
2022-10-12T23:17:27.398Z,20.70
2022-10-12T23:20:49.570Z,20.70
2022-10-12T23:24:11.842Z,20.70
2022-10-12T23:27:33.968Z,20.70
2022-10-12T23:30:57.106Z,20.70
2022-10-12T23:34:19.221Z,20.70
2022-10-12T23:37:44.323Z,20.70
2022-10-12T23:41:07.446Z,20.70
2022-10-12T23:44:29.582Z,20.70
2022-10-12T23:47:51.730Z,20.70
2022-10-12T23:51:13.938Z,20.70
2022-10-12T23:54:37.723Z,20.70
2022-10-12T23:58:00.007Z,20.70
